Upper Greasewood Trading Pos, Arizona
Current Conditions -  °F | °C
As of 10:53 AM on Thursday 29 Jan 2015 (Local Time) from KRQE Reporting Station
Broken Clouds Broken Clouds  
Wind Chill: 47°   Ceiling: 10000
Heat Index: 47°   Visibility: 10mi
Dew Point: 31°   Wind: 0mph
Humidity: 54%   Direction: NA
Pressure: 30.35"   Gusts: NA
Location:  36.4446°N, 109.262°W
Report Text: KRQE 291753Z AUTO 00000KT 10SM BKN100 08/M01 A3035 RMK AO2 SLP242 T00831006 10083 20000 51005 TSNO
Loading
Personal Weather Stations






























Interactive Weather Map New forecast layout! Learn more

10-Day Weather Forecast

Advertisements
Track Severe Weather on mobile